Time;durP1;ratioP1;P1;durP2;ratioP2;P2;SDS_P1;SDS_P2;PMS_P1;PMS_P2;Temp;Humidity;BMP_temperature;BMP_pressure;BME280_temperature;BME280_humidity;BME280_pressure;Samples;Min_cycle;Max_cycle;Signal;HPM_P1;HPM_P2
2023/12/12 00:00:19;;;;;;;0.50;0.50;;;;;;;6.16;84.87;94581.38;4952308;29;20179;-71
2023/12/12 00:02:44;;;;;;;0.47;0.47;;;;;;;6.24;84.85;94568.97;4952553;29;20298;-70
2023/12/12 00:05:10;;;;;;;2.30;2.10;;;;;;;6.27;83.93;94552.91;4952752;29;20266;-71
2023/12/12 00:07:35;;;;;;;1.27;1.27;;;;;;;6.31;84.01;94546.28;4952740;28;20660;-71
2023/12/12 00:10:01;;;;;;;2.20;2.10;;;;;;;6.34;83.88;94535.44;4952698;28;20200;-71
2023/12/12 00:12:27;;;;;;;0.40;0.40;;;;;;;6.32;83.46;94537.44;4952742;29;20265;-71
2023/12/12 00:14:52;;;;;;;6.67;4.47;;;;;;;6.31;83.18;94538.44;4952720;28;20179;-71
2023/12/12 00:17:18;;;;;;;3.23;2.80;;;;;;;6.23;83.01;94504.63;4952798;29;20704;-70
2023/12/12 00:19:43;;;;;;;10.17;9.40;;;;;;;6.11;83.14;94500.16;4953042;28;20194;-70
2023/12/12 00:22:09;;;;;;;1.37;1.37;;;;;;;6.27;83.69;94526.78;4952616;28;20584;-70
2023/12/12 00:24:35;;;;;;;3.27;2.97;;;;;;;6.17;83.28;94535.94;4952796;28;20266;-70
2023/12/12 00:27:00;;;;;;;1.57;1.47;;;;;;;6.05;83.66;94541.69;4952774;28;20269;-70
2023/12/12 00:29:26;;;;;;;2.80;2.60;;;;;;;6.26;83.70;94564.34;4952560;28;20285;-71
2023/12/12 00:31:51;;;;;;;0.60;0.60;;;;;;;6.29;83.91;94569.22;4952477;28;20179;-71
2023/12/12 00:34:17;;;;;;;0.40;0.40;;;;;;;6.36;84.18;94558.78;4952401;28;20190;-71
2023/12/12 00:36:42;;;;;;;0.80;0.80;;;;;;;6.43;83.74;94560.44;4952375;28;20194;-71
2023/12/12 00:39:07;;;;;;;0.60;0.60;;;;;;;6.48;84.23;94565.09;4951373;29;20204;-71
2023/12/12 00:41:34;;;;;;;1.33;1.33;;;;;;;6.50;84.31;94570.94;4952267;28;20193;-71
2023/12/12 00:44:00;;;;;;;7.27;1.80;;;;;;;6.47;84.33;94560.06;4956952;28;20186;-71
2023/12/12 00:46:25;;;;;;;2.93;2.73;;;;;;;6.20;84.10;94539.00;4971709;28;20180;-71
2023/12/12 00:48:51;;;;;;;0.40;0.40;;;;;;;6.30;84.69;94552.53;4971707;28;20192;-71
2023/12/12 00:51:16;;;;;;;5.23;3.87;;;;;;;6.31;84.84;94551.50;4971566;28;20706;-71
2023/12/12 00:53:42;;;;;;;1.43;1.43;;;;;;;6.33;84.60;94564.38;4971522;28;20268;-71
2023/12/12 00:56:08;;;;;;;12.30;11.23;;;;;;;6.32;84.83;94574.03;4971696;28;20292;-70
2023/12/12 00:58:33;;;;;;;0.83;0.83;;;;;;;6.26;85.36;94547.88;4971402;28;20178;-70
2023/12/12 01:00:59;;;;;;;1.13;1.13;;;;;;;6.42;84.84;94565.84;4971287;28;20181;-70
2023/12/12 01:03:24;;;;;;;6.80;5.70;;;;;;;6.41;85.07;94549.34;4971183;28;20651;-70
2023/12/12 01:05:50;;;;;;;0.80;0.80;;;;;;;6.47;84.56;94562.69;4971174;28;20259;-70
2023/12/12 01:08:15;;;;;;;0.90;0.90;;;;;;;6.43;84.79;94576.13;4971304;28;20178;-70
2023/12/12 01:10:40;;;;;;;0.63;0.63;;;;;;;6.24;84.77;94542.81;4970819;28;20644;-70
2023/12/12 01:13:06;;;;;;;1.47;1.47;;;;;;;6.42;84.51;94587.56;4971043;28;20184;-71
2023/12/12 01:15:32;;;;;;;1.30;1.27;;;;;;;6.28;84.68;94557.13;4970971;28;20671;-70
2023/12/12 01:17:58;;;;;;;20.50;2.20;;;;;;;6.47;84.29;94575.75;4971052;28;20683;-70
2023/12/12 01:20:23;;;;;;;0.90;0.90;;;;;;;6.37;84.31;94569.06;4971269;28;20189;-70
2023/12/12 01:22:49;;;;;;;0.90;0.90;;;;;;;6.43;84.73;94564.84;4970995;28;20663;-70
2023/12/12 01:25:14;;;;;;;0.50;0.50;;;;;;;6.41;84.15;94572.88;4971022;28;20626;-70
2023/12/12 01:27:40;;;;;;;0.50;0.50;;;;;;;6.40;84.78;94584.34;4971004;28;20174;-70
2023/12/12 01:30:06;;;;;;;0.50;0.50;;;;;;;6.42;84.75;94597.22;4971508;28;20230;-70
2023/12/12 01:32:31;;;;;;;3.23;3.13;;;;;;;6.38;84.71;94588.16;4971321;28;20178;-70
2023/12/12 01:34:57;;;;;;;2.73;2.53;;;;;;;6.39;84.50;94579.31;4971222;28;20181;-70
2023/12/12 01:37:22;;;;;;;0.60;0.60;;;;;;;6.34;84.80;94558.16;4971000;28;20213;-70
2023/12/12 01:39:48;;;;;;;1.80;1.80;;;;;;;6.44;84.39;94564.66;4971008;28;20177;-70
2023/12/12 01:42:13;;;;;;;0.43;0.43;;;;;;;6.45;84.52;94552.41;4970967;28;20189;-70
2023/12/12 01:44:38;;;;;;;0.40;0.40;;;;;;;6.42;83.96;94548.38;4969592;28;20584;-70
2023/12/12 01:47:04;;;;;;;0.50;0.50;;;;;;;6.43;83.99;94536.09;4971012;28;20237;-71
2023/12/12 01:49:30;;;;;;;0.87;0.87;;;;;;;6.23;83.64;94517.69;4971191;28;20170;-70
2023/12/12 01:51:56;;;;;;;0.40;0.40;;;;;;;6.37;83.93;94542.91;4971006;28;20260;-70
2023/12/12 01:54:22;;;;;;;0.90;0.90;;;;;;;6.40;84.46;94549.53;4970831;28;20185;-71
2023/12/12 01:56:51;;;;;;;3.90;2.40;;;;;;;6.41;84.25;94538.91;4970679;28;20632;-71
2023/12/12 01:59:17;;;;;;;0.60;0.60;;;;;;;6.42;84.11;94553.59;4970998;28;20265;-70
2023/12/12 02:01:43;;;;;;;0.90;0.90;;;;;;;6.36;83.58;94567.44;4971021;28;20670;-70
2023/12/12 02:04:09;;;;;;;0.70;0.70;;;;;;;6.21;83.37;94540.63;4970746;28;20185;-70
2023/12/12 02:06:35;;;;;;;0.70;0.70;;;;;;;6.21;82.89;94579.81;4970843;28;20261;-70
2023/12/12 02:09:01;;;;;;;3.27;2.77;;;;;;;6.15;83.15;94577.13;4970892;28;20177;-70
2023/12/12 02:11:27;;;;;;;1.03;1.03;;;;;;;5.94;83.49;94549.28;4970870;28;20182;-70
2023/12/12 02:13:52;;;;;;;1.60;1.13;;;;;;;5.93;83.58;94558.09;4970684;28;20571;-70
2023/12/12 02:16:18;;;;;;;0.87;0.87;;;;;;;5.70;83.92;94558.28;4970759;28;20241;-70
2023/12/12 02:18:43;;;;;;;8.30;3.20;;;;;;;5.64;84.54;94575.50;4971141;28;20957;-70
2023/12/12 02:21:08;;;;;;;1.40;1.13;;;;;;;5.62;84.94;94576.69;4971674;28;20186;-70
2023/12/12 02:23:34;;;;;;;0.50;0.50;;;;;;;5.63;85.11;94586.94;4974273;28;20189;-70
2023/12/12 02:26:02;;;;;;;0.60;0.60;;;;;;;5.66;85.10;94594.41;4974086;28;20625;-70
2023/12/12 02:28:28;;;;;;;7.20;5.60;;;;;;;5.61;85.08;94588.94;4972925;28;20178;-70
2023/12/12 02:30:54;;;;;;;7.00;5.20;;;;;;;5.66;85.55;94589.19;4974400;28;20335;-70
2023/12/12 02:33:20;;;;;;;11.87;10.90;;;;;;;5.62;85.20;94587.16;4974101;28;20713;-70
2023/12/12 02:35:45;;;;;;;0.83;0.83;;;;;;;5.58;84.95;94589.31;4973989;28;20256;-70
2023/12/12 02:38:13;;;;;;;1.83;1.73;;;;;;;5.56;85.19;94599.13;4974024;28;20344;-70
2023/12/12 02:40:39;;;;;;;0.50;0.50;;;;;;;5.55;85.04;94581.84;4974231;28;20643;-70
2023/12/12 02:43:04;;;;;;;0.97;0.97;;;;;;;5.65;85.47;94605.03;4974251;28;20200;-70
2023/12/12 02:45:30;;;;;;;1.23;1.23;;;;;;;5.60;85.25;94605.59;4973905;28;20275;-70
2023/12/12 02:47:56;;;;;;;1.80;1.70;;;;;;;5.53;85.08;94607.34;4974007;28;20567;-70
2023/12/12 02:50:21;;;;;;;0.30;0.30;;;;;;;5.29;85.77;94608.47;4974081;28;20181;-71
2023/12/12 02:52:47;;;;;;;1.37;1.27;;;;;;;5.25;86.32;94609.03;4974091;28;20538;-71
2023/12/12 02:55:12;;;;;;;0.90;0.90;;;;;;;5.36;86.84;94611.19;4974090;28;20552;-70
2023/12/12 02:57:37;;;;;;;2.40;1.23;;;;;;;5.41;86.19;94613.22;4963453;28;20210;-70
2023/12/12 03:00:05;;;;;;;0.90;0.90;;;;;;;5.38;86.19;94577.84;4954587;28;20179;-70
2023/12/12 03:02:32;;;;;;;3.73;2.80;;;;;;;5.25;86.67;94582.97;4954659;28;20643;-70
2023/12/12 03:04:58;;;;;;;3.40;2.70;;;;;;;5.16;87.36;94581.44;4954184;28;20178;-70
2023/12/12 03:07:23;;;;;;;4.50;4.23;;;;;;;5.16;87.74;94589.28;4954463;28;20252;-70
2023/12/12 03:09:49;;;;;;;13.07;2.40;;;;;;;5.16;88.06;94586.66;4954367;29;20190;-70
2023/12/12 03:12:15;;;;;;;4.73;4.33;;;;;;;5.20;87.65;94564.41;4954245;29;20182;-70
2023/12/12 03:14:40;;;;;;;0.60;0.60;;;;;;;5.26;88.00;94568.91;4954099;28;20268;-71
2023/12/12 03:17:06;;;;;;;0.40;0.40;;;;;;;5.47;87.74;94575.94;4953508;28;20684;-70
2023/12/12 03:19:31;;;;;;;0.50;0.50;;;;;;;5.55;87.51;94574.00;4954015;28;20261;-70
2023/12/12 03:21:57;;;;;;;0.80;0.80;;;;;;;5.52;87.18;94548.28;4954071;29;20562;-70
2023/12/12 03:24:22;;;;;;;1.30;1.27;;;;;;;5.71;87.13;94561.72;4953976;29;20193;-70
2023/12/12 03:26:48;;;;;;;3.83;3.63;;;;;;;5.80;86.50;94568.38;4953779;29;20178;-70
2023/12/12 03:29:13;;;;;;;0.57;0.57;;;;;;;5.85;86.60;94574.69;4953778;28;20619;-70
2023/12/12 03:31:39;;;;;;;0.50;0.50;;;;;;;5.89;86.33;94564.69;4952187;28;20214;-70
2023/12/12 03:34:05;;;;;;;0.50;0.50;;;;;;;5.86;86.47;94544.16;4953921;29;20691;-70
2023/12/12 03:36:31;;;;;;;5.40;5.07;;;;;;;6.00;85.80;94564.16;4953498;28;20198;-70
2023/12/12 03:38:56;;;;;;;1.00;1.00;;;;;;;5.90;85.68;94533.16;4953533;28;20245;-71
2023/12/12 03:41:23;;;;;;;0.93;0.93;;;;;;;6.09;85.49;94557.00;4953796;29;20205;-71
2023/12/12 03:43:49;;;;;;;0.70;0.70;;;;;;;6.14;85.20;94554.63;4954080;28;20802;-70
2023/12/12 03:46:16;;;;;;;1.13;1.13;;;;;;;5.96;84.34;94518.53;4953734;28;20182;-70
2023/12/12 03:48:41;;;;;;;0.70;0.70;;;;;;;6.16;84.22;94563.88;4953924;28;20189;-70
2023/12/12 03:51:10;;;;;;;0.40;0.40;;;;;;;6.18;84.37;94564.50;4953818;28;20190;-70
2023/12/12 03:53:36;;;;;;;3.43;2.20;;;;;;;6.21;84.30;94569.38;4953821;28;21020;-70
2023/12/12 03:56:02;;;;;;;0.50;0.50;;;;;;;6.23;84.77;94564.72;4953497;28;20254;-70
2023/12/12 03:58:29;;;;;;;0.60;0.60;;;;;;;6.20;84.24;94554.69;4953398;28;20179;-70
2023/12/12 04:00:54;;;;;;;1.80;1.60;;;;;;;6.31;83.68;94567.19;4953337;28;20190;-70
2023/12/12 04:03:20;;;;;;;0.77;0.77;;;;;;;6.27;83.26;94562.56;4953365;29;20189;-70
2023/12/12 04:05:45;;;;;;;7.40;2.63;;;;;;;6.17;83.51;94581.19;4952971;28;20178;-70
2023/12/12 04:08:11;;;;;;;1.10;1.10;;;;;;;6.09;83.42;94590.97;4952829;28;20182;-70
2023/12/12 04:10:36;;;;;;;2.30;2.20;;;;;;;5.96;83.96;94596.91;4952541;28;20183;-70
2023/12/12 04:13:02;;;;;;;3.93;3.30;;;;;;;5.86;84.27;94591.16;4952481;28;20190;-70
2023/12/12 04:15:27;;;;;;;0.70;0.70;;;;;;;5.83;84.61;94592.34;4952746;28;20186;-70
2023/12/12 04:17:53;;;;;;;0.80;0.80;;;;;;;5.85;85.15;94603.41;4952819;28;20734;-70
2023/12/12 04:20:18;;;;;;;1.90;1.90;;;;;;;5.81;84.84;94606.56;4953025;29;20309;-70
2023/12/12 04:22:44;;;;;;;0.53;0.53;;;;;;;5.85;84.91;94603.41;4952599;28;20263;-70
2023/12/12 04:25:13;;;;;;;0.77;0.77;;;;;;;5.93;85.24;94612.94;4952779;28;20194;-70
2023/12/12 04:27:39;;;;;;;0.90;0.90;;;;;;;5.96;84.59;94609.97;4952839;28;20175;-70
2023/12/12 04:30:05;;;;;;;1.73;1.63;;;;;;;6.06;84.45;94606.00;4952651;28;20193;-70
2023/12/12 04:32:31;;;;;;;1.73;1.67;;;;;;;6.06;84.13;94615.66;4952589;28;20261;-70
2023/12/12 04:34:57;;;;;;;0.60;0.60;;;;;;;5.90;84.28;94597.66;4952703;28;20175;-69
2023/12/12 04:37:23;;;;;;;4.47;1.73;;;;;;;6.05;84.14;94616.69;4952699;28;20195;-69
2023/12/12 04:39:48;;;;;;;4.97;4.63;;;;;;;6.07;84.19;94619.88;4952370;28;20186;-70
2023/12/12 04:42:15;;;;;;;0.60;0.60;;;;;;;6.04;84.29;94621.09;4952692;28;20193;-70
2023/12/12 04:44:43;;;;;;;0.50;0.50;;;;;;;6.03;84.50;94614.25;4951757;28;20186;-70
2023/12/12 04:47:09;;;;;;;0.40;0.40;;;;;;;6.15;84.02;94635.44;4952667;28;20190;-70
2023/12/12 04:49:36;;;;;;;0.40;0.40;;;;;;;6.12;83.99;94620.16;4952428;28;20189;-70
2023/12/12 04:52:02;;;;;;;0.40;0.40;;;;;;;6.25;84.43;94630.69;4952432;28;20973;-69
2023/12/12 04:54:27;;;;;;;0.40;0.40;;;;;;;6.29;83.98;94629.31;4961470;28;20182;-69
2023/12/12 04:56:53;;;;;;;0.80;0.80;;;;;;;6.22;84.28;94606.75;4971433;28;20201;-69
2023/12/12 04:59:19;;;;;;;0.43;0.43;;;;;;;6.37;83.60;94629.19;4971429;28;20225;-70
2023/12/12 05:01:45;;;;;;;0.70;0.70;;;;;;;6.41;83.76;94634.81;4970965;28;20659;-70
2023/12/12 05:04:10;;;;;;;0.40;0.40;;;;;;;6.42;83.73;94642.47;4970133;28;20632;-70
2023/12/12 05:06:36;;;;;;;3.10;1.83;;;;;;;6.44;83.87;94637.88;4971641;28;20255;-69
2023/12/12 05:09:01;;;;;;;11.60;10.60;;;;;;;6.44;83.86;94637.88;4969970;28;20188;-70
2023/12/12 05:11:28;;;;;;;0.80;0.80;;;;;;;6.40;83.44;94654.91;4971394;28;20285;-70
2023/12/12 05:13:53;;;;;;;0.60;0.60;;;;;;;6.38;83.84;94661.34;4971364;28;20663;-70
2023/12/12 05:16:19;;;;;;;0.70;0.70;;;;;;;6.35;83.76;94662.53;4971247;28;20333;-70
2023/12/12 05:18:44;;;;;;;2.47;2.37;;;;;;;6.32;84.29;94662.91;4971005;28;20632;-70
2023/12/12 05:21:11;;;;;;;1.87;1.77;;;;;;;6.28;84.09;94666.91;4971065;28;20549;-70
2023/12/12 05:23:36;;;;;;;1.63;1.53;;;;;;;6.24;84.59;94664.84;4971150;28;20567;-70
2023/12/12 05:26:02;;;;;;;0.80;0.80;;;;;;;6.21;85.06;94668.66;4971114;28;20173;-70
2023/12/12 05:28:27;;;;;;;4.53;4.27;;;;;;;6.21;84.97;94665.25;4971285;28;20182;-70
2023/12/12 05:30:52;;;;;;;1.10;1.10;;;;;;;6.23;85.04;94661.44;4971416;28;20182;-70
2023/12/12 05:33:18;;;;;;;14.30;6.13;;;;;;;6.30;84.95;94654.47;4970059;28;20236;-70
2023/12/12 05:35:44;;;;;;;4.00;1.70;;;;;;;6.33;84.53;94659.28;4970877;28;20264;-70
2023/12/12 05:38:09;;;;;;;1.70;1.70;;;;;;;6.23;84.46;94661.44;4957020;28;20218;-69
2023/12/12 05:40:35;;;;;;;1.70;1.00;;;;;;;6.20;84.17;94659.22;4951865;28;20641;-69
2023/12/12 05:43:01;;;;;;;0.50;0.50;;;;;;;6.22;84.27;94662.44;4951875;28;20182;-70
2023/12/12 05:45:26;;;;;;;0.80;0.80;;;;;;;6.27;84.65;94667.91;4951522;28;20193;-70
2023/12/12 05:47:52;;;;;;;2.83;2.30;;;;;;;6.17;84.42;94636.06;4951749;29;20198;-70
2023/12/12 05:50:18;;;;;;;0.50;0.50;;;;;;;6.23;84.61;94653.59;4952067;28;20284;-69
2023/12/12 05:52:43;;;;;;;1.17;1.17;;;;;;;6.34;84.72;94666.16;4951848;28;20263;-69
2023/12/12 05:55:09;;;;;;;0.50;0.50;;;;;;;6.42;84.40;94673.03;4959128;28;20185;-69
2023/12/12 05:57:35;;;;;;;0.60;0.60;;;;;;;6.44;84.35;94665.81;4974445;28;20201;-69
2023/12/12 06:00:02;;;;;;;0.50;0.50;;;;;;;6.47;84.44;94669.88;4972533;28;20614;-68
2023/12/12 06:02:28;;;;;;;4.37;2.07;;;;;;;6.50;84.04;94678.13;4974825;28;20235;-68
2023/12/12 06:04:54;;;;;;;1.07;1.07;;;;;;;6.40;84.24;94669.78;4973756;28;20177;-68
2023/12/12 06:07:19;;;;;;;0.40;0.40;;;;;;;6.42;84.28;94673.03;4974071;28;20562;-68
2023/12/12 06:09:45;;;;;;;0.50;0.50;;;;;;;6.33;84.70;94667.13;4974603;28;20181;-68
2023/12/12 06:12:10;;;;;;;1.33;1.33;;;;;;;6.13;84.89;94668.81;4974675;28;20186;-68
2023/12/12 06:14:36;;;;;;;0.87;0.87;;;;;;;6.09;85.44;94654.47;4973519;28;20204;-69
2023/12/12 06:17:05;;;;;;;4.70;2.77;;;;;;;5.86;85.67;94635.56;4973139;28;20615;-69
2023/12/12 06:19:31;;;;;;;1.03;1.03;;;;;;;6.08;85.88;94655.47;4973869;28;20188;-68
2023/12/12 06:21:56;;;;;;;6.80;2.53;;;;;;;6.13;85.60;94647.09;4973613;28;20178;-68
2023/12/12 06:24:22;;;;;;;4.23;2.20;;;;;;;5.98;86.30;94634.06;4973412;28;20178;-69
2023/12/12 06:26:48;;;;;;;1.47;1.43;;;;;;;6.06;86.49;94644.41;4973323;28;20170;-69
2023/12/12 06:29:14;;;;;;;2.73;1.53;;;;;;;6.19;86.38;94647.13;4973587;28;20598;-70
2023/12/12 06:31:39;;;;;;;0.50;0.50;;;;;;;6.35;85.49;94651.28;4974346;28;20181;-69
2023/12/12 06:34:06;;;;;;;0.43;0.43;;;;;;;6.43;85.53;94654.56;4974352;28;20181;-69
2023/12/12 06:36:31;;;;;;;0.40;0.40;;;;;;;6.53;84.90;94650.78;4972906;28;20275;-69
2023/12/12 06:38:57;;;;;;;1.53;1.50;;;;;;;6.62;84.16;94663.53;4973989;28;20257;-70
2023/12/12 06:41:22;;;;;;;1.30;1.30;;;;;;;6.72;83.54;94664.00;4973751;28;20320;-68
2023/12/12 06:43:48;;;;;;;0.40;0.40;;;;;;;6.76;83.14;94654.75;4973984;28;20189;-68
2023/12/12 06:46:19;;;;;;;0.60;0.60;;;;;;;7.02;82.96;94672.41;4974279;28;20177;-69
2023/12/12 06:48:45;;;;;;;0.40;0.40;;;;;;;7.16;82.59;94670.69;4954956;28;20285;-69
2023/12/12 06:51:10;;;;;;;3.93;2.30;;;;;;;7.50;82.11;94682.94;4953800;28;20265;-68
2023/12/12 06:53:36;;;;;;;0.70;0.70;;;;;;;7.65;80.73;94691.44;4953350;28;20190;-68
2023/12/12 06:56:02;;;;;;;0.83;0.83;;;;;;;7.72;79.71;94697.50;4954516;28;20240;-68
2023/12/12 06:58:28;;;;;;;0.67;0.67;;;;;;;7.76;78.76;94703.97;4953949;28;20210;-68
2023/12/12 07:00:54;;;;;;;0.97;0.97;;;;;;;7.78;78.52;94698.53;4953962;28;20178;-68
2023/12/12 07:03:21;;;;;;;0.90;0.90;;;;;;;7.77;78.58;94702.16;4954095;28;20571;-68
2023/12/12 07:05:50;;;;;;;2.00;1.90;;;;;;;7.84;78.44;94711.66;4953996;28;20190;-68
2023/12/12 07:08:18;;;;;;;1.03;1.03;;;;;;;7.92;79.19;94690.50;4953306;28;20198;-68
2023/12/12 07:10:43;;;;;;;0.60;0.60;;;;;;;8.19;78.85;94722.00;4953844;28;20182;-68
2023/12/12 07:13:09;;;;;;;0.50;0.50;;;;;;;8.30;77.95;94722.22;4953879;29;20249;-68
2023/12/12 07:15:34;;;;;;;0.50;0.50;;;;;;;8.32;77.76;94717.63;4953677;29;20602;-69
2023/12/12 07:18:01;;;;;;;0.40;0.40;;;;;;;8.16;77.71;94701.44;4953930;28;20214;-68
2023/12/12 07:20:26;;;;;;;2.37;2.27;;;;;;;8.33;78.22;94718.44;4954169;28;20174;-69
2023/12/12 07:22:52;;;;;;;0.60;0.60;;;;;;;8.45;78.14;94727.31;4952812;28;20278;-68
2023/12/12 07:25:17;;;;;;;0.90;0.90;;;;;;;8.68;77.42;94725.09;4953808;28;20238;-68
2023/12/12 07:27:43;;;;;;;0.40;0.40;;;;;;;8.88;75.82;94725.09;4953952;29;20561;-68
2023/12/12 07:30:10;;;;;;;1.30;1.30;;;;;;;9.12;75.30;94726.28;4953724;28;20189;-68
2023/12/12 07:32:35;;;;;;;0.60;0.60;;;;;;;9.20;74.84;94726.06;4953729;29;20175;-69
2023/12/12 07:35:01;;;;;;;0.50;0.50;;;;;;;9.41;74.76;94727.63;4953511;28;20189;-68
2023/12/12 07:37:26;;;;;;;1.17;1.17;;;;;;;9.66;73.02;94730.38;4953430;28;20237;-68
2023/12/12 07:39:52;;;;;;;1.50;1.50;;;;;;;10.11;71.56;94731.19;4953320;29;20190;-68
2023/12/12 07:42:17;;;;;;;2.17;2.07;;;;;;;10.37;70.75;94730.25;4953418;29;20669;-69
2023/12/12 07:44:43;;;;;;;0.50;0.50;;;;;;;10.45;70.45;94724.75;4953474;28;20182;-68
2023/12/12 07:47:08;;;;;;;0.40;0.40;;;;;;;10.40;70.75;94725.38;4953293;28;20257;-69
2023/12/12 07:49:34;;;;;;;0.40;0.40;;;;;;;10.31;70.86;94731.09;4953495;29;20179;-69
2023/12/12 07:51:59;;;;;;;0.47;0.47;;;;;;;10.24;71.31;94735.59;4953386;29;20189;-69
2023/12/12 07:54:25;;;;;;;0.60;0.60;;;;;;;10.10;71.19;94725.13;4950064;28;20182;-68
2023/12/12 07:56:50;;;;;;;0.60;0.60;;;;;;;9.90;72.01;94708.63;4953205;28;20596;-69
2023/12/12 07:59:17;;;;;;;1.17;1.17;;;;;;;9.90;72.72;94708.63;4953364;28;20259;-69
2023/12/12 08:01:43;;;;;;;0.50;0.50;;;;;;;9.99;72.65;94719.72;4953254;28;20186;-68
2023/12/12 08:04:08;;;;;;;0.40;0.40;;;;;;;10.05;72.79;94724.94;4953120;29;20182;-68
2023/12/12 08:06:34;;;;;;;0.40;0.40;;;;;;;10.01;73.28;94707.97;4953153;29;20262;-68
2023/12/12 08:08:59;;;;;;;0.40;0.40;;;;;;;10.18;72.92;94703.88;4953099;29;20197;-68
2023/12/12 08:11:27;;;;;;;0.40;0.40;;;;;;;10.34;72.37;94702.53;4953065;29;20190;-68
2023/12/12 08:13:54;;;;;;;0.83;0.83;;;;;;;10.51;72.78;94695.75;4953047;28;20197;-69
2023/12/12 08:16:20;;;;;;;0.43;0.43;;;;;;;10.78;71.97;94712.13;4952639;28;20346;-69
2023/12/12 08:18:45;;;;;;;0.40;0.40;;;;;;;10.95;71.68;94715.03;4953206;28;20273;-69
2023/12/12 08:21:11;;;;;;;0.40;0.40;;;;;;;11.11;71.13;94721.56;4959857;28;20275;-68
2023/12/12 08:23:37;;;;;;;0.90;0.90;;;;;;;11.17;69.92;94716.22;4970716;28;20676;-70
2023/12/12 08:26:05;;;;;;;0.50;0.50;;;;;;;11.21;69.65;94716.59;4972117;28;20192;-69
2023/12/12 08:28:31;;;;;;;0.50;0.50;;;;;;;11.21;68.91;94712.16;4971947;28;20265;-69
2023/12/12 08:30:56;;;;;;;0.67;0.67;;;;;;;11.21;68.81;94708.69;4972199;28;20260;-69
2023/12/12 08:33:23;;;;;;;0.60;0.60;;;;;;;11.12;68.57;94688.94;4972170;28;20715;-68
2023/12/12 08:35:49;;;;;;;0.40;0.40;;;;;;;11.22;69.03;94705.03;4971828;28;20178;-69
2023/12/12 08:38:14;;;;;;;0.50;0.50;;;;;;;11.23;68.99;94707.47;4971887;28;20201;-69
2023/12/12 08:40:40;;;;;;;0.50;0.50;;;;;;;11.25;68.67;94709.84;4971808;28;20620;-70
2023/12/12 08:43:06;;;;;;;0.40;0.40;;;;;;;11.14;68.11;94695.59;4962156;28;20186;-69
2023/12/12 08:45:32;;;;;;;0.50;0.50;;;;;;;11.06;68.30;94692.44;4967757;28;20193;-69
2023/12/12 08:47:58;;;;;;;34.07;27.70;;;;;;;11.17;67.90;94712.78;4955518;28;20174;-69
2023/12/12 08:50:23;;;;;;;0.40;0.40;;;;;;;11.10;67.95;94718.13;4962049;28;20263;-69
2023/12/12 08:52:49;;;;;;;0.40;0.40;;;;;;;10.96;68.46;94711.38;4959564;28;20178;-69
2023/12/12 08:55:14;;;;;;;0.40;0.40;;;;;;;10.87;68.77;94707.41;4964810;28;20236;-68
2023/12/12 08:57:40;;;;;;;0.37;0.37;;;;;;;10.77;68.69;94692.09;4953431;28;20201;-68
2023/12/12 09:00:12;;;;;;;0.40;0.40;;;;;;;10.77;69.18;94693.91;4965056;28;20179;-68
2023/12/12 09:02:38;;;;;;;0.50;0.50;;;;;;;10.89;69.20;94700.91;4959916;28;20285;-68
2023/12/12 09:05:04;;;;;;;0.40;0.40;;;;;;;11.02;68.97;94709.69;4956466;28;20265;-68
2023/12/12 09:07:30;;;;;;;0.33;0.33;;;;;;;11.12;68.88;94715.28;4967003;28;20182;-69
2023/12/12 09:09:55;;;;;;;0.40;0.40;;;;;;;11.19;68.68;94705.47;4953318;28;20188;-69
2023/12/12 09:12:21;;;;;;;0.40;0.40;;;;;;;11.28;68.68;94712.88;4962722;28;20178;-69
2023/12/12 09:14:47;;;;;;;0.53;0.53;;;;;;;11.35;67.99;94715.44;4955560;28;20182;-69
2023/12/12 09:17:12;;;;;;;0.70;0.70;;;;;;;11.34;68.05;94717.25;4963129;28;20229;-70
2023/12/12 09:19:38;;;;;;;0.40;0.40;;;;;;;11.34;68.02;94727.00;4951877;28;20201;-69
2023/12/12 09:22:03;;;;;;;0.47;0.47;;;;;;;11.34;68.26;94734.91;4968579;28;20182;-69
2023/12/12 09:24:29;;;;;;;0.50;0.50;;;;;;;11.25;68.37;94713.31;4959608;28;20273;-69
2023/12/12 09:26:55;;;;;;;0.43;0.43;;;;;;;11.35;68.66;94728.63;4962597;28;20672;-69
2023/12/12 09:29:20;;;;;;;0.50;0.50;;;;;;;11.41;68.96;94726.94;4954538;28;20182;-69
2023/12/12 09:31:46;;;;;;;0.50;0.50;;;;;;;11.41;68.08;94722.50;4964474;28;20257;-69
2023/12/12 09:34:12;;;;;;;0.50;0.50;;;;;;;11.48;68.68;94723.22;4956843;28;20209;-70
2023/12/12 09:36:38;;;;;;;0.40;0.40;;;;;;;11.56;67.69;94715.03;4960079;28;20282;-70
2023/12/12 09:39:07;;;;;;;0.40;0.40;;;;;;;11.65;68.28;94713.69;4961174;28;20272;-69
2023/12/12 09:41:33;;;;;;;0.40;0.40;;;;;;;11.77;68.68;94699.78;4966475;28;20189;-69
2023/12/12 09:44:01;;;;;;;0.40;0.40;;;;;;;11.96;66.79;94693.47;4951065;28;20186;-69
2023/12/12 09:46:28;;;;;;;0.47;0.47;;;;;;;12.12;66.99;94708.66;4951738;28;20186;-70
2023/12/12 09:48:55;;;;;;;0.40;0.40;;;;;;;12.32;66.58;94703.13;4951472;28;20193;-69
2023/12/12 09:51:21;;;;;;;0.43;0.43;;;;;;;12.45;66.48;94679.94;4950084;28;20248;-70
2023/12/12 09:53:47;;;;;;;0.90;0.90;;;;;;;12.78;66.04;94681.28;4963189;28;20656;-71
2023/12/12 09:56:17;;;;;;;0.50;0.50;;;;;;;13.09;64.77;94696.81;4953773;28;20189;-70
2023/12/12 09:58:45;;;;;;;0.70;0.70;;;;;;;13.25;64.34;94697.97;4963938;28;20628;-71
2023/12/12 10:01:12;;;;;;;0.40;0.40;;;;;;;13.48;63.96;94692.69;4956017;28;20182;-70
2023/12/12 10:03:38;;;;;;;0.70;0.70;;;;;;;13.67;62.54;94682.72;4951334;28;20221;-69
2023/12/12 10:06:09;;;;;;;0.40;0.40;;;;;;;13.78;61.74;94697.78;4954032;28;20711;-70
2023/12/12 10:08:38;;;;;;;0.40;0.40;;;;;;;13.84;61.26;94691.53;4966221;28;20273;-70
2023/12/12 10:11:08;;;;;;;0.47;0.47;;;;;;;13.93;61.74;94682.19;4957241;28;20718;-70
2023/12/12 10:13:50;;;;;;;0.40;0.40;;;;;;;14.05;60.55;94689.28;4958298;28;20217;-71
2023/12/12 10:16:17;;;;;;;0.40;0.40;;;;;;;14.15;61.09;94686.84;4966187;28;20229;-71
2023/12/12 10:18:46;;;;;;;0.57;0.57;;;;;;;14.21;60.41;94680.59;4953795;28;20192;-69
2023/12/12 10:21:16;;;;;;;0.30;0.30;;;;;;;14.22;60.53;94687.50;4961191;28;20197;-70
2023/12/12 10:23:47;;;;;;;0.50;0.50;;;;;;;14.23;59.77;94689.91;4961173;28;20205;-71
2023/12/12 10:26:14;;;;;;;0.40;0.40;;;;;;;14.17;59.90;94706.75;4951127;28;20186;-70
2023/12/12 10:28:40;;;;;;;0.80;0.80;;;;;;;13.89;60.31;94694.31;4956398;28;20269;-70
2023/12/12 10:31:07;;;;;;;0.40;0.40;;;;;;;13.85;60.16;94709.03;4968496;28;20248;-70
2023/12/12 10:33:34;;;;;;;0.40;0.40;;;;;;;13.56;60.86;94688.88;4968249;28;20189;-70
2023/12/12 10:36:08;;;;;;;0.40;0.40;;;;;;;13.62;61.22;94703.00;4950374;28;20269;-70
2023/12/12 10:38:35;;;;;;;0.40;0.40;;;;;;;13.47;61.88;94684.97;4950134;28;20198;-70
2023/12/12 10:41:21;;;;;;;0.70;0.70;;;;;;;13.43;61.81;94700.50;4949707;28;20182;-70
2023/12/12 10:43:48;;;;;;;0.50;0.50;;;;;;;13.34;62.18;94699.22;4952948;28;20650;-70
2023/12/12 10:46:16;;;;;;;0.40;0.40;;;;;;;13.17;62.47;94700.97;4953855;28;20171;-70
2023/12/12 10:48:43;;;;;;;0.40;0.40;;;;;;;13.12;62.47;94698.19;4953587;28;20183;-70
2023/12/12 10:51:11;;;;;;;0.30;0.30;;;;;;;13.11;62.10;94710.59;4954048;28;20183;-69
2023/12/12 10:53:37;;;;;;;0.40;0.40;;;;;;;13.11;62.50;94723.81;4953820;28;20180;-69
2023/12/12 10:56:04;;;;;;;0.40;0.40;;;;;;;13.10;62.53;94719.56;4963697;28;20268;-70
2023/12/12 10:58:31;;;;;;;0.40;0.40;;;;;;;13.09;62.45;94717.13;4972354;28;20248;-70
2023/12/12 11:00:58;;;;;;;0.30;0.30;;;;;;;13.00;61.89;94724.59;4972677;28;20190;-70
2023/12/12 11:03:24;;;;;;;0.30;0.30;;;;;;;12.81;62.69;94701.94;4972678;28;20181;-70
2023/12/12 11:05:50;;;;;;;0.50;0.50;;;;;;;12.83;63.20;94711.25;4972496;28;20173;-70
2023/12/12 11:08:17;;;;;;;0.67;0.67;;;;;;;12.66;63.57;94702.41;4971894;28;20702;-69
2023/12/12 11:10:43;;;;;;;0.30;0.30;;;;;;;12.70;64.20;94715.97;4953175;28;20182;-70
2023/12/12 11:13:09;;;;;;;0.90;0.90;;;;;;;12.65;64.28;94713.19;4952813;28;20186;-69
2023/12/12 11:15:37;;;;;;;0.60;0.60;;;;;;;12.59;64.66;94709.63;4952539;28;20256;-69
2023/12/12 11:18:08;;;;;;;1.70;1.23;;;;;;;12.57;64.54;94711.69;4952171;28;20203;-69
2023/12/12 11:20:40;;;;;;;1.00;1.00;;;;;;;12.58;64.72;94707.19;4952558;28;20594;-69
2023/12/12 11:23:07;;;;;;;0.50;0.50;;;;;;;12.53;64.66;94707.09;4952393;28;20178;-69
2023/12/12 11:25:34;;;;;;;2.63;2.53;;;;;;;12.54;65.04;94706.06;4952335;28;20536;-68
2023/12/12 11:28:01;;;;;;;1.03;0.90;;;;;;;12.47;65.28;94695.56;4952244;28;20571;-69
2023/12/12 11:30:38;;;;;;;0.57;0.57;;;;;;;12.46;65.67;94696.59;4952181;28;20185;-69
2023/12/12 11:33:06;;;;;;;1.80;1.70;;;;;;;12.47;65.43;94696.38;4950909;28;20819;-69